Time;durP1;ratioP1;P1;durP2;ratioP2;P2;SDS_P1;SDS_P2;PMS_P1;PMS_P2;Temp;Humidity;BMP_temperature;BMP_pressure;BME280_temperature;BME280_humidity;BME280_pressure;Samples;Min_cycle;Max_cycle;Signal;HPM_P1;HPM_P2
2023/09/02 00:01:38;;;;;;;4.53;1.83;;;;;;;-145.69;54.30;51858.22;5133672;27;20200;-80
2023/09/02 00:04:05;;;;;;;8.25;2.00;;;;;;;-145.69;54.06;51838.44;5133634;28;20204;-80
2023/09/02 00:06:32;;;;;;;5.07;1.90;;;;;;;-145.69;54.58;51862.19;5133551;27;20734;-81
2023/09/02 00:09:00;;;;;;;6.20;1.67;;;;;;;-145.69;54.97;51846.34;5133770;27;20200;-80
2023/09/02 00:11:30;;;;;;;3.58;2.13;;;;;;;-145.69;53.94;51852.28;5135625;27;20197;-80
2023/09/02 00:13:57;;;;;;;3.75;1.77;;;;;;;-145.69;54.66;51830.50;5117248;28;20232;-80
2023/09/02 00:16:26;;;;;;;6.57;1.83;;;;;;;-145.69;53.79;51846.34;5117287;28;20237;-80
2023/09/02 00:18:53;;;;;;;4.57;2.00;;;;;;;-145.69;54.06;51850.31;5116755;28;20201;-80
2023/09/02 00:21:19;;;;;;;3.28;1.88;;;;;;;-145.69;53.88;51824.56;5129464;27;20197;-80
2023/09/02 00:23:49;;;;;;;4.40;2.00;;;;;;;-145.69;54.25;51862.19;5137635;27;20207;-80
2023/09/02 00:26:19;;;;;;;5.03;2.15;;;;;;;-145.69;54.08;51850.31;5137238;27;20201;-80
2023/09/02 00:28:49;;;;;;;4.38;1.95;;;;;;;-145.69;54.21;51876.06;5137436;27;20201;-80
2023/09/02 00:31:19;;;;;;;5.50;1.90;;;;;;;-145.69;54.43;51878.03;5137539;27;20283;-80
2023/09/02 00:33:45;;;;;;;1.92;1.48;;;;;;;-145.69;54.75;51850.31;5137259;27;20305;-80
2023/09/02 00:36:12;;;;;;;5.18;1.80;;;;;;;-145.69;54.32;51858.22;5137205;27;20205;-80
2023/09/02 00:38:38;;;;;;;4.07;2.22;;;;;;;-145.69;54.51;51866.16;5137018;27;20540;-80
2023/09/02 00:41:08;;;;;;;5.35;1.90;;;;;;;-145.69;54.74;51844.38;5137372;27;20231;-80
2023/09/02 00:43:37;;;;;;;3.97;2.13;;;;;;;-145.69;54.42;51874.06;5136308;27;20228;-80
2023/09/02 00:46:06;;;;;;;3.78;1.98;;;;;;;-145.69;54.71;51864.16;5137149;27;20536;-80
2023/09/02 00:48:33;;;;;;;3.50;1.92;;;;;;;-145.69;54.93;51856.25;5136919;27;20723;-81
2023/09/02 00:51:00;;;;;;;3.70;2.22;;;;;;;-145.69;54.95;51856.25;5137237;27;20279;-80
2023/09/02 00:53:27;;;;;;;5.13;2.30;;;;;;;-145.69;54.56;51862.19;5136597;27;20307;-80
2023/09/02 00:55:55;;;;;;;9.32;2.25;;;;;;;-145.69;55.53;51858.22;5137095;27;20288;-80
2023/09/02 00:58:21;;;;;;;6.22;2.03;;;;;;;-145.69;55.11;51870.13;5136757;27;20225;-81
2023/09/02 01:00:49;;;;;;;6.75;2.40;;;;;;;-145.69;54.66;51868.13;5135539;27;20196;-81
2023/09/02 01:03:17;;;;;;;4.80;1.90;;;;;;;-145.69;54.72;51866.16;5136926;27;20208;-80
2023/09/02 01:05:43;;;;;;;4.55;1.90;;;;;;;-145.69;55.01;51866.16;5136966;27;20601;-81
2023/09/02 01:08:11;;;;;;;3.60;1.88;;;;;;;-145.69;55.21;51826.56;5136541;27;20639;-81
2023/09/02 01:10:38;;;;;;;7.32;2.20;;;;;;;-145.69;55.02;51862.19;5136930;27;20204;-80
2023/09/02 01:13:07;;;;;;;4.25;1.95;;;;;;;-145.69;54.91;51885.94;5136521;27;20707;-80
2023/09/02 01:15:35;;;;;;;3.83;2.10;;;;;;;-145.69;54.76;51874.06;5132146;27;20225;-80
2023/09/02 01:18:02;;;;;;;2.42;1.92;;;;;;;-145.69;54.89;51850.31;5115933;28;20197;-81
2023/09/02 01:20:48;;;;;;;5.70;2.20;;;;;;;-145.69;54.38;51858.22;5115888;27;20712;-80
2023/09/02 01:23:33;;;;;;;4.57;2.00;;;;;;;-145.69;54.91;51830.50;5114003;27;20439;-80
2023/09/02 01:26:23;;;;;;;3.92;1.80;;;;;;;-145.69;54.46;51882.00;5115947;27;20205;-81
2023/09/02 01:28:56;;;;;;;4.63;2.10;;;;;;;-145.69;55.16;51842.38;5115533;28;20683;-80
2023/09/02 01:31:25;;;;;;;4.88;2.10;;;;;;;-145.69;54.85;51846.34;5115794;28;20205;-80
2023/09/02 01:33:54;;;;;;;3.60;2.08;;;;;;;-145.69;55.19;51824.56;5134577;27;20556;-80
2023/09/02 01:36:22;;;;;;;6.95;2.65;;;;;;;-145.69;54.65;51903.78;5136323;27;20287;-80
2023/09/02 01:38:50;;;;;;;5.07;2.17;;;;;;;-145.69;55.46;51856.25;5136201;27;20241;-80
2023/09/02 01:41:17;;;;;;;4.00;2.10;;;;;;;-145.69;55.02;51882.00;5135504;27;20666;-80
2023/09/02 01:43:45;;;;;;;7.03;2.22;;;;;;;-145.69;55.74;51901.78;5135431;27;20233;-80
2023/09/02 01:46:14;;;;;;;2.15;1.88;;;;;;;-145.69;56.24;51887.94;5135683;27;20291;-80
2023/09/02 01:48:43;;;;;;;3.88;2.00;;;;;;;-145.69;55.60;51866.16;5135969;27;20219;-80
2023/09/02 01:51:11;;;;;;;3.42;1.75;;;;;;;-145.69;55.97;51840.41;5135546;27;20197;-80
2023/09/02 01:53:38;;;;;;;5.55;2.30;;;;;;;-145.69;55.87;51866.16;5134423;27;20225;-79
2023/09/02 01:56:04;;;;;;;7.05;1.85;;;;;;;-145.69;56.46;51880.00;5135696;27;20647;-79
2023/09/02 01:58:33;;;;;;;3.55;2.10;;;;;;;-145.69;55.92;51866.16;5135723;27;20201;-80
2023/09/02 02:01:00;;;;;;;2.67;1.95;;;;;;;-145.69;55.87;51880.00;5135658;27;20758;-80
2023/09/02 02:03:35;;;;;;;3.80;2.13;;;;;;;-145.69;56.07;51854.28;5135699;27;20295;-80
2023/09/02 02:06:05;;;;;;;4.72;2.20;;;;;;;-145.69;56.28;51868.13;5135714;27;20196;-79
2023/09/02 02:08:44;;;;;;;5.03;2.15;;;;;;;-145.69;56.28;51850.31;5135255;27;20197;-79
2023/09/02 02:11:18;;;;;;;3.38;2.15;;;;;;;-145.69;55.79;51897.84;5135384;27;20238;-80
2023/09/02 02:13:44;;;;;;;3.53;1.88;;;;;;;-145.69;56.81;51852.28;5134729;27;20231;-80
2023/09/02 02:16:11;;;;;;;2.88;1.95;;;;;;;-145.69;56.64;51911.69;5135003;27;20196;-80
2023/09/02 02:18:39;;;;;;;4.07;1.90;;;;;;;-145.69;56.25;51874.06;5135110;27;20203;-80
2023/09/02 02:21:07;;;;;;;4.45;2.08;;;;;;;-145.69;56.76;51889.91;5134848;27;20207;-80
2023/09/02 02:23:41;;;;;;;3.05;1.92;;;;;;;-145.69;57.83;51897.84;5134882;27;20193;-80
2023/09/02 02:26:08;;;;;;;5.78;2.33;;;;;;;-145.69;56.22;51882.00;5135039;27;20282;-80
2023/09/02 02:28:36;;;;;;;7.55;2.45;;;;;;;-145.69;56.57;51885.94;5135264;27;20207;-79
2023/09/02 02:31:02;;;;;;;5.55;2.33;;;;;;;-145.69;56.72;51889.91;5134846;27;20196;-80
2023/09/02 02:33:31;;;;;;;4.90;2.08;;;;;;;-145.69;57.05;51883.97;5134539;27;20232;-81
2023/09/02 02:36:01;;;;;;;4.00;2.08;;;;;;;-145.69;57.17;51866.16;5134155;27;20647;-79
2023/09/02 02:38:27;;;;;;;5.50;2.13;;;;;;;-145.69;56.58;51878.03;5134825;27;20220;-80
2023/09/02 02:40:54;;;;;;;3.45;2.10;;;;;;;-145.69;57.43;51882.00;5134736;27;20225;-79
2023/09/02 02:43:25;;;;;;;3.80;1.90;;;;;;;-145.69;56.77;51882.00;5134170;27;20556;-80
2023/09/02 02:45:51;;;;;;;5.28;2.28;;;;;;;-145.69;56.98;51919.63;5135936;27;20214;-79
2023/09/02 02:48:18;;;;;;;3.85;1.80;;;;;;;-145.69;56.67;51874.06;5134599;27;20197;-79
2023/09/02 02:50:45;;;;;;;6.18;2.45;;;;;;;-145.69;57.71;51887.94;5134323;27;20193;-80
2023/09/02 02:53:12;;;;;;;5.20;2.45;;;;;;;-145.69;57.04;51897.84;5133699;27;20223;-80
2023/09/02 02:55:41;;;;;;;4.53;2.10;;;;;;;-145.69;57.06;51882.00;5134360;27;20195;-80
2023/09/02 02:58:08;;;;;;;3.38;2.20;;;;;;;-145.69;57.41;51866.16;5134249;27;20663;-80
2023/09/02 03:00:34;;;;;;;3.50;2.25;;;;;;;-145.69;57.10;51882.00;5134495;27;20200;-80
2023/09/02 03:03:03;;;;;;;3.88;2.08;;;;;;;-145.69;56.82;51897.84;5134452;27;20200;-80
2023/09/02 03:05:32;;;;;;;7.38;1.90;;;;;;;-145.69;56.82;51893.88;5134639;27;20197;-80
2023/09/02 03:07:59;;;;;;;4.55;2.10;;;;;;;-145.69;56.77;51905.75;5134071;27;20199;-80
2023/09/02 03:10:26;;;;;;;2.72;2.00;;;;;;;-145.69;57.86;51858.22;5130830;27;20207;-80
2023/09/02 03:12:53;;;;;;;6.75;2.45;;;;;;;-145.69;57.14;51874.06;5134029;27;20316;-80
2023/09/02 03:15:19;;;;;;;3.10;1.85;;;;;;;-145.69;56.63;51885.94;5134171;27;20200;-80
2023/09/02 03:17:46;;;;;;;2.90;1.85;;;;;;;-145.69;56.40;51913.69;5133959;27;20667;-80
2023/09/02 03:20:13;;;;;;;5.18;2.75;;;;;;;-145.69;57.13;51901.78;5134206;27;20193;-79
2023/09/02 03:22:41;;;;;;;4.03;2.05;;;;;;;-145.69;57.04;51866.16;5134121;27;20196;-80
2023/09/02 03:25:11;;;;;;;3.70;2.00;;;;;;;-145.69;57.05;51889.91;5134012;27;20236;-80
2023/09/02 03:27:40;;;;;;;5.05;2.10;;;;;;;-145.69;57.22;51850.31;5133344;27;20243;-81
2023/09/02 03:30:07;;;;;;;3.88;2.03;;;;;;;-145.69;57.11;51876.06;5133658;27;20279;-80
2023/09/02 03:32:36;;;;;;;8.38;2.03;;;;;;;-145.69;57.17;51893.88;5133983;27;20201;-80
2023/09/02 03:35:07;;;;;;;4.13;1.85;;;;;;;-145.69;57.08;51891.88;5133599;27;20197;-80
2023/09/02 03:37:34;;;;;;;8.23;1.63;;;;;;;-145.69;56.85;51909.72;5132541;27;20199;-79
2023/09/02 03:40:04;;;;;;;4.93;2.00;;;;;;;-145.69;56.89;51866.16;5134026;27;20205;-80
2023/09/02 03:42:30;;;;;;;4.55;2.00;;;;;;;-145.69;56.59;51903.78;5133287;27;20303;-79
2023/09/02 03:45:02;;;;;;;2.40;1.70;;;;;;;-145.69;55.89;51882.00;5133698;27;20204;-79
2023/09/02 03:47:32;;;;;;;4.22;2.03;;;;;;;-145.69;55.84;51903.78;5133893;27;20224;-80
2023/09/02 03:49:59;;;;;;;5.82;2.15;;;;;;;-145.69;56.20;51878.03;5133873;27;20204;-80
2023/09/02 03:52:26;;;;;;;5.70;1.98;;;;;;;-145.69;57.36;51903.78;5133464;27;20211;-80
2023/09/02 03:54:53;;;;;;;4.10;2.03;;;;;;;-145.69;56.34;51893.88;5133251;27;20256;-80
2023/09/02 03:57:19;;;;;;;2.53;1.85;;;;;;;-145.69;57.85;51897.84;5133749;27;20201;-80
2023/09/02 03:59:46;;;;;;;5.25;1.95;;;;;;;-145.69;56.78;51883.97;5133765;28;20204;-79
2023/09/02 04:02:14;;;;;;;4.68;1.80;;;;;;;-145.69;56.55;51878.03;5133362;28;20200;-80
2023/09/02 04:04:41;;;;;;;4.72;1.90;;;;;;;-145.69;56.83;51891.88;5133829;27;20211;-80
2023/09/02 04:07:08;;;;;;;5.50;2.40;;;;;;;-145.69;56.93;51870.13;5133306;28;20193;-79
2023/09/02 04:09:35;;;;;;;4.82;2.15;;;;;;;-145.69;57.05;51911.69;5133508;27;20204;-80
2023/09/02 04:12:04;;;;;;;7.40;2.25;;;;;;;-145.69;57.80;51893.88;5133440;27;20224;-79
2023/09/02 04:14:30;;;;;;;3.22;1.75;;;;;;;-145.69;56.92;51885.94;5133179;27;20217;-80
2023/09/02 04:16:59;;;;;;;5.03;2.13;;;;;;;-145.69;57.18;51901.78;5132742;27;20196;-80
2023/09/02 04:19:27;;;;;;;3.92;1.90;;;;;;;-145.69;56.53;51887.94;5133184;27;20193;-79
2023/09/02 04:21:58;;;;;;;5.93;2.03;;;;;;;-145.69;56.51;51874.06;5133225;28;20212;-80
2023/09/02 04:24:25;;;;;;;3.83;1.98;;;;;;;-145.69;57.25;51889.91;5133294;27;20548;-79
2023/09/02 04:26:52;;;;;;;4.32;2.20;;;;;;;-145.69;57.17;51889.91;5133525;27;20235;-80
2023/09/02 04:29:19;;;;;;;6.15;2.30;;;;;;;-145.69;57.09;51917.63;5133253;27;20205;-79
2023/09/02 04:31:45;;;;;;;4.95;2.40;;;;;;;-145.69;57.25;51913.69;5133188;27;20722;-80
2023/09/02 04:34:12;;;;;;;4.55;1.98;;;;;;;-145.69;57.72;51905.75;5132780;27;20231;-80
2023/09/02 04:36:40;;;;;;;6.53;2.05;;;;;;;-145.69;56.80;51911.69;5132962;27;20666;-80
2023/09/02 04:39:07;;;;;;;4.10;1.83;;;;;;;-145.69;57.31;51913.69;5133425;27;20197;-80
2023/09/02 04:41:34;;;;;;;6.28;2.20;;;;;;;-145.69;56.83;51921.59;5133296;27;20218;-79
2023/09/02 04:44:00;;;;;;;3.13;2.08;;;;;;;-145.69;57.06;51925.56;5132753;27;20327;-79
2023/09/02 04:46:28;;;;;;;3.72;2.00;;;;;;;-145.69;56.83;51897.84;5133154;27;20201;-79
2023/09/02 04:48:55;;;;;;;3.17;1.85;;;;;;;-145.69;56.77;51893.88;5133061;27;20205;-80
2023/09/02 04:51:21;;;;;;;3.85;1.98;;;;;;;-145.69;56.73;51895.84;5133300;27;20228;-80
2023/09/02 04:53:49;;;;;;;3.13;1.85;;;;;;;-145.69;56.77;51893.88;5132739;27;20721;-80
2023/09/02 04:56:16;;;;;;;3.72;1.98;;;;;;;-145.69;57.00;51905.75;5132849;28;20200;-80
2023/09/02 04:58:53;;;;;;;3.65;2.17;;;;;;;-145.69;57.40;51893.88;5135628;27;20283;-80
2023/09/02 05:01:19;;;;;;;3.00;1.88;;;;;;;-145.69;57.01;51905.75;5137348;27;20285;-80
2023/09/02 05:03:47;;;;;;;4.18;2.05;;;;;;;-145.69;57.58;51941.41;5136324;27;20644;-80
2023/09/02 05:06:14;;;;;;;5.65;2.80;;;;;;;-145.69;57.25;51905.75;5137223;27;20203;-79
2023/09/02 05:08:43;;;;;;;4.68;1.83;;;;;;;-145.69;58.16;51899.81;5137022;27;20201;-79
2023/09/02 05:11:11;;;;;;;3.05;1.90;;;;;;;-145.69;57.48;51907.72;5136618;27;20224;-81
2023/09/02 05:13:38;;;;;;;5.63;1.85;;;;;;;-145.69;57.45;51915.66;5136479;27;20585;-80
2023/09/02 05:16:05;;;;;;;8.30;2.00;;;;;;;-145.69;57.15;51899.81;5134557;27;20193;-80
2023/09/02 05:18:31;;;;;;;4.15;2.60;;;;;;;-145.69;57.71;51921.59;5133997;27;20241;-80
2023/09/02 05:20:58;;;;;;;3.70;2.47;;;;;;;-145.69;57.49;51919.63;5136436;27;20332;-79
2023/09/02 05:23:27;;;;;;;6.55;2.33;;;;;;;-145.69;57.33;51895.84;5136398;27;20196;-80
2023/09/02 05:25:57;;;;;;;4.72;1.98;;;;;;;-145.69;57.95;51901.78;5136519;27;20257;-79
2023/09/02 05:28:26;;;;;;;4.80;2.17;;;;;;;-145.69;57.27;51895.84;5135000;27;20200;-80
2023/09/02 05:30:52;;;;;;;6.95;1.75;;;;;;;-145.69;57.32;51911.69;5136140;27;20621;-80
2023/09/02 05:33:19;;;;;;;5.32;1.50;;;;;;;-145.69;57.53;51882.00;5136300;27;20204;-80
2023/09/02 05:35:53;;;;;;;2.85;1.88;;;;;;;-145.69;57.31;51887.94;5136199;27;20229;-80
2023/09/02 05:38:19;;;;;;;4.10;1.67;;;;;;;-145.69;56.95;51895.84;5135843;27;20682;-79
2023/09/02 05:40:46;;;;;;;3.55;1.98;;;;;;;-145.69;57.03;51885.94;5136068;27;20223;-79
2023/09/02 05:43:12;;;;;;;4.72;1.90;;;;;;;-145.69;57.17;51909.72;5135678;27;20239;-80
2023/09/02 05:45:40;;;;;;;4.72;2.20;;;;;;;-145.69;57.28;51893.88;5135634;27;20283;-79
2023/09/02 05:48:07;;;;;;;8.55;2.13;;;;;;;-145.69;57.39;51883.97;5136061;27;20193;-79
2023/09/02 05:50:34;;;;;;;2.72;1.70;;;;;;;-145.69;57.51;51893.88;5136040;27;20262;-79
2023/09/02 05:53:04;;;;;;;4.07;1.80;;;;;;;-145.69;56.85;51883.97;5135982;27;20201;-79
2023/09/02 05:55:31;;;;;;;3.47;1.85;;;;;;;-145.69;57.10;51882.00;5135562;27;20231;-80
2023/09/02 05:58:00;;;;;;;3.45;2.00;;;;;;;-145.69;57.10;51866.16;5135579;27;20287;-79
2023/09/02 06:00:27;;;;;;;3.92;1.95;;;;;;;-145.69;56.68;51876.06;5135797;27;20558;-80
2023/09/02 06:02:57;;;;;;;2.85;1.80;;;;;;;-145.69;56.61;51876.06;5135799;27;20197;-80
2023/09/02 06:05:26;;;;;;;3.63;2.00;;;;;;;-145.69;56.56;51880.00;5135370;27;20200;-79
2023/09/02 06:07:56;;;;;;;3.92;1.90;;;;;;;-145.69;56.48;51880.00;5135409;27;20197;-80
2023/09/02 06:10:22;;;;;;;3.13;1.70;;;;;;;-145.69;57.18;51887.94;5135261;27;20566;-80
2023/09/02 06:12:49;;;;;;;2.67;2.10;;;;;;;-145.69;57.25;51889.91;5133946;27;20363;-80
2023/09/02 06:15:15;;;;;;;4.60;1.95;;;;;;;-145.69;57.11;51885.94;5135145;27;20224;-80
2023/09/02 06:17:42;;;;;;;2.90;1.73;;;;;;;-145.69;57.24;51880.00;5135542;27;20206;-80
2023/09/02 06:20:15;;;;;;;5.03;2.10;;;;;;;-145.69;56.93;51864.16;5136287;27;20317;-80
2023/09/02 06:22:41;;;;;;;4.28;2.00;;;;;;;-145.69;57.21;51885.94;5134534;27;20264;-80
2023/09/02 06:25:11;;;;;;;3.40;1.90;;;;;;;-145.69;57.04;51874.06;5134783;27;20677;-81
2023/09/02 06:27:38;;;;;;;4.15;1.90;;;;;;;-145.69;56.88;51850.31;5135102;27;20240;-80
2023/09/02 06:30:06;;;;;;;2.67;2.03;;;;;;;-145.69;56.77;51878.03;5135183;27;20203;-80
2023/09/02 06:32:33;;;;;;;3.22;1.60;;;;;;;-145.69;56.73;51878.03;5134934;27;20200;-80
2023/09/02 06:35:00;;;;;;;3.53;1.92;;;;;;;-145.69;56.72;51874.06;5134838;27;20224;-80
2023/09/02 06:37:28;;;;;;;3.13;1.80;;;;;;;-145.69;56.26;51850.31;5134835;27;20204;-80
2023/09/02 06:39:55;;;;;;;6.35;2.08;;;;;;;-145.69;56.46;51882.00;5135000;27;20251;-80
2023/09/02 06:42:23;;;;;;;2.72;1.77;;;;;;;-145.69;56.35;51862.19;5134961;27;20228;-80
2023/09/02 06:44:53;;;;;;;2.55;1.58;;;;;;;-145.69;56.65;51838.44;5134823;27;20230;-81
2023/09/02 06:47:20;;;;;;;2.30;1.83;;;;;;;-145.69;56.57;51870.13;5134735;27;20200;-81
2023/09/02 06:49:46;;;;;;;2.92;1.70;;;;;;;-145.69;56.57;51874.06;5134631;27;20224;-81
2023/09/02 06:52:13;;;;;;;2.97;1.83;;;;;;;-145.69;56.88;51834.47;5134399;27;20200;-81
2023/09/02 06:54:41;;;;;;;4.78;2.22;;;;;;;-145.69;56.32;51830.50;5133880;27;20227;-80
2023/09/02 06:57:07;;;;;;;4.30;2.05;;;;;;;-145.69;56.40;51830.50;5134343;27;20188;-80
2023/09/02 06:59:34;;;;;;;3.47;1.83;;;;;;;-145.69;56.48;51840.41;5134136;27;20209;-80
2023/09/02 07:02:01;;;;;;;4.65;1.85;;;;;;;-145.69;56.44;51828.53;5134246;27;20208;-81
2023/09/02 07:04:30;;;;;;;2.67;1.98;;;;;;;-145.69;56.72;51810.72;5134454;27;20196;-81
2023/09/02 07:07:05;;;;;;;2.50;1.85;;;;;;;-145.69;55.97;51834.47;5134143;27;20291;-81
2023/09/02 07:09:32;;;;;;;2.92;1.85;;;;;;;-145.69;56.62;51848.34;5134601;27;20196;-80
2023/09/02 07:11:59;;;;;;;4.95;1.88;;;;;;;-145.69;56.21;51814.66;5134540;27;20201;-80
2023/09/02 07:14:29;;;;;;;2.03;1.70;;;;;;;-145.69;56.23;51820.59;5130532;27;20220;-81
2023/09/02 07:16:55;;;;;;;5.40;1.83;;;;;;;-145.69;55.89;51838.44;5134092;27;20648;-80
2023/09/02 07:19:22;;;;;;;3.60;1.60;;;;;;;-145.69;56.29;51788.94;5134252;27;20731;-80
2023/09/02 07:21:48;;;;;;;4.13;1.63;;;;;;;-145.69;55.77;51810.72;5133202;27;20659;-80
2023/09/02 07:24:15;;;;;;;2.55;1.80;;;;;;;-145.69;55.69;51798.81;5134016;27;20197;-80
2023/09/02 07:26:42;;;;;;;2.28;1.60;;;;;;;-145.69;54.93;51790.91;5134009;27;20644;-81
2023/09/02 07:29:10;;;;;;;3.25;1.70;;;;;;;-145.69;55.10;51771.09;5133971;27;20236;-80
2023/09/02 07:31:40;;;;;;;3.05;1.52;;;;;;;-145.69;54.71;51781.00;5133769;27;20201;-80
2023/09/02 07:34:12;;;;;;;2.17;1.40;;;;;;;-145.69;55.34;51777.03;5133854;27;20743;-80
2023/09/02 07:36:39;;;;;;;4.15;1.60;;;;;;;-145.69;54.66;51794.88;5134020;27;20243;-80
2023/09/02 07:39:08;;;;;;;4.03;1.50;;;;;;;-145.69;54.22;51786.94;5134156;27;20203;-81
2023/09/02 07:41:37;;;;;;;3.65;2.00;;;;;;;-145.69;53.82;51767.16;5134616;27;20566;-81
2023/09/02 07:44:04;;;;;;;1.90;1.27;;;;;;;-145.69;53.21;51783.00;5133631;27;20237;-81
2023/09/02 07:46:34;;;;;;;2.83;1.60;;;;;;;-145.69;52.14;51775.06;5133880;27;20228;-81
2023/09/02 07:49:00;;;;;;;2.85;1.50;;;;;;;-145.69;51.27;51737.44;5134146;27;20201;-81
2023/09/02 07:51:30;;;;;;;1.90;1.17;;;;;;;-145.69;50.67;51747.34;5133952;27;20202;-81
2023/09/02 07:53:57;;;;;;;2.80;1.38;;;;;;;-145.69;49.68;51784.97;5133700;27;20249;-80
2023/09/02 07:56:23;;;;;;;1.77;1.15;;;;;;;-145.69;49.89;51767.16;5133778;27;20228;-80
2023/09/02 07:58:50;;;;;;;2.88;1.20;;;;;;;-145.69;49.67;51767.16;5133512;28;20202;-80
2023/09/02 08:01:17;;;;;;;2.90;1.42;;;;;;;-145.69;48.72;51755.25;5133690;28;20197;-80
2023/09/02 08:03:45;;;;;;;1.98;1.30;;;;;;;-145.69;48.85;51767.16;5130723;27;20201;-80
2023/09/02 08:06:13;;;;;;;2.72;1.30;;;;;;;-145.69;46.68;51767.16;5132387;27;20215;-81
2023/09/02 08:08:39;;;;;;;2.60;1.30;;;;;;;-145.69;46.62;51759.22;5132994;27;20295;-80
2023/09/02 08:11:07;;;;;;;4.00;1.20;;;;;;;-145.69;44.32;51779.03;5133564;27;20280;-79
2023/09/02 08:13:34;;;;;;;1.30;1.08;;;;;;;-145.69;45.43;51747.34;5133447;27;20193;-80
2023/09/02 08:16:04;;;;;;;2.13;1.40;;;;;;;-145.69;44.22;51747.34;5131766;27;20713;-80
2023/09/02 08:18:30;;;;;;;3.15;1.27;;;;;;;-145.69;44.36;51741.41;5133339;27;20273;-80
2023/09/02 08:20:58;;;;;;;2.38;1.20;;;;;;;-145.69;43.64;51743.38;5133606;27;20678;-80
2023/09/02 08:23:25;;;;;;;2.97;1.20;;;;;;;-145.69;42.95;51761.22;5132528;28;20209;-80
2023/09/02 08:25:51;;;;;;;1.38;1.13;;;;;;;-145.69;43.07;51763.19;5133047;28;20240;-80
2023/09/02 08:28:18;;;;;;;2.78;1.10;;;;;;;-145.69;42.85;51729.53;5133662;27;20204;-81
2023/09/02 08:30:45;;;;;;;1.50;1.00;;;;;;;-145.69;42.57;51779.03;5133661;28;20196;-80
2023/09/02 08:33:11;;;;;;;2.05;1.20;;;;;;;-145.69;42.66;51733.50;5135609;27;20197;-80
2023/09/02 08:35:38;;;;;;;2.67;1.20;;;;;;;-145.69;42.00;51731.50;5138494;27;20548;-80
2023/09/02 08:38:06;;;;;;;5.28;1.00;;;;;;;-145.69;41.39;51743.38;5137980;27;20204;-81
2023/09/02 08:40:33;;;;;;;1.65;1.08;;;;;;;-145.69;41.27;51713.69;5137849;27;20287;-81
2023/09/02 08:43:01;;;;;;;2.45;1.30;;;;;;;-145.69;41.16;51751.31;5137854;27;20331;-79
2023/09/02 08:45:31;;;;;;;2.47;1.38;;;;;;;-145.69;41.72;51757.25;5136820;27;20188;-80
2023/09/02 08:48:02;;;;;;;4.63;1.45;;;;;;;-145.69;40.06;51757.25;5137205;27;20226;-80
2023/09/02 08:50:30;;;;;;;4.35;1.40;;;;;;;-145.69;39.80;51719.63;5137087;27;20205;-80
2023/09/02 08:52:57;;;;;;;2.75;1.23;;;;;;;-145.69;40.52;51741.41;5136361;27;20203;-81
2023/09/02 08:55:27;;;;;;;3.13;1.30;;;;;;;-145.69;40.60;51727.53;5137033;27;20247;-80
2023/09/02 08:57:55;;;;;;;2.33;1.20;;;;;;;-145.69;41.35;51715.66;5137216;27;20208;-79
2023/09/02 09:00:21;;;;;;;2.03;1.10;;;;;;;-145.69;41.14;51759.22;5137013;27;20199;-81
2023/09/02 09:02:48;;;;;;;2.42;1.35;;;;;;;-145.69;40.74;51717.66;5136981;27;20207;-80
2023/09/02 09:05:16;;;;;;;4.80;1.10;;;;;;;-145.69;40.98;51719.63;5120557;27;20588;-79
2023/09/02 09:07:42;;;;;;;1.85;1.30;;;;;;;-145.69;40.79;51747.34;5116557;27;20209;-80
2023/09/02 09:10:11;;;;;;;1.80;1.17;;;;;;;-145.69;40.55;51731.50;5116600;28;20759;-80
2023/09/02 09:12:39;;;;;;;1.85;1.20;;;;;;;-145.69;41.20;51743.38;5116554;28;20227;-81
2023/09/02 09:15:12;;;;;;;3.10;1.13;;;;;;;-145.69;40.49;51729.53;5126334;27;20224;-81
2023/09/02 09:17:39;;;;;;;2.13;1.00;;;;;;;-145.69;38.47;51751.31;5116552;28;20193;-80
2023/09/02 09:20:10;;;;;;;2.03;0.90;;;;;;;-145.69;37.81;51727.53;5116136;28;20224;-80
2023/09/02 09:22:38;;;;;;;1.15;0.80;;;;;;;-145.69;37.96;51741.41;5116197;28;20203;-80
2023/09/02 09:25:05;;;;;;;4.20;0.95;;;;;;;-145.69;36.88;51747.34;5116141;28;20205;-80
2023/09/02 09:27:32;;;;;;;2.08;0.85;;;;;;;-145.69;37.20;51727.53;5115901;28;20338;-80
2023/09/02 09:30:00;;;;;;;1.63;0.90;;;;;;;-145.69;37.55;51727.53;5115814;28;20715;-79
2023/09/02 09:32:27;;;;;;;1.85;1.00;;;;;;;-145.69;38.27;51729.53;5115722;28;20193;-79
2023/09/02 09:34:54;;;;;;;2.00;1.00;;;;;;;-145.69;39.04;51727.53;5115835;28;20225;-79
2023/09/02 09:37:21;;;;;;;4.00;1.25;;;;;;;-145.69;39.01;51735.47;5130183;27;20201;-81
2023/09/02 09:39:51;;;;;;;1.75;1.25;;;;;;;-145.69;38.68;51707.75;5136297;27;20208;-80
2023/09/02 09:42:19;;;;;;;1.60;1.20;;;;;;;-145.69;39.19;51727.53;5136040;27;20295;-80
2023/09/02 09:44:56;;;;;;;2.97;1.30;;;;;;;-145.69;38.23;51711.72;5135489;27;20284;-79
2023/09/02 09:47:27;;;;;;;3.08;1.13;;;;;;;-145.69;38.91;51721.59;5137462;27;20284;-80
2023/09/02 09:49:56;;;;;;;3.42;1.20;;;;;;;-145.69;38.86;51731.50;5136416;27;20219;-79
2023/09/02 09:52:22;;;;;;;2.13;1.10;;;;;;;-145.69;37.30;51733.50;5135885;27;20288;-80
2023/09/02 09:54:51;;;;;;;1.10;0.90;;;;;;;-145.69;37.59;51735.47;5135963;27;20229;-81
2023/09/02 09:57:30;;;;;;;1.60;0.98;;;;;;;-145.69;37.25;51709.72;5135949;27;20200;-80
2023/09/02 09:59:59;;;;;;;2.30;1.02;;;;;;;-145.69;36.75;51715.66;5135862;27;20354;-80
2023/09/02 10:02:27;;;;;;;1.58;0.88;;;;;;;-145.69;37.55;51715.66;5135798;27;20265;-81
2023/09/02 10:04:56;;;;;;;4.07;1.10;;;;;;;-145.69;37.04;51707.75;5135902;27;20207;-81
2023/09/02 10:07:25;;;;;;;2.83;1.25;;;;;;;-145.69;36.52;51678.03;5128627;27;20288;-80
2023/09/02 10:09:53;;;;;;;1.95;0.90;;;;;;;-145.69;36.65;51707.75;5135163;27;20710;-80
2023/09/02 10:12:20;;;;;;;2.20;1.20;;;;;;;-145.69;35.84;51699.81;5135204;27;20284;-81
2023/09/02 10:14:51;;;;;;;2.47;1.00;;;;;;;-145.69;36.38;51709.72;5134842;27;20616;-80
2023/09/02 10:17:18;;;;;;;1.42;1.02;;;;;;;-145.69;35.75;51705.75;5134985;27;20287;-81
2023/09/02 10:19:47;;;;;;;2.10;1.00;;;;;;;-145.69;35.65;51707.75;5135490;27;20194;-81
2023/09/02 10:22:18;;;;;;;2.78;1.17;;;;;;;-145.69;35.90;51691.91;5135293;27;20204;-80
2023/09/02 10:24:50;;;;;;;2.25;1.10;;;;;;;-145.69;35.42;51701.81;5135338;27;20815;-80
2023/09/02 10:27:18;;;;;;;1.30;0.90;;;;;;;-145.69;35.35;51709.72;5136549;27;20191;-81
2023/09/02 10:29:51;;;;;;;2.47;1.15;;;;;;;-145.69;34.52;51685.97;5136522;27;20193;-82
2023/09/02 10:32:17;;;;;;;1.88;0.93;;;;;;;-145.69;34.74;51691.91;5156007;27;20196;-80
2023/09/02 10:34:53;;;;;;;1.60;0.77;;;;;;;-145.69;34.05;51691.91;5155488;27;20202;-80
2023/09/02 10:37:25;;;;;;;1.95;1.00;;;;;;;-145.69;34.07;51703.78;5155682;27;20669;-80
2023/09/02 10:39:57;;;;;;;6.53;1.20;;;;;;;-145.69;34.75;51715.66;5154893;27;20196;-80
2023/09/02 10:42:25;;;;;;;3.17;1.20;;;;;;;-145.69;35.08;51668.16;5155281;27;20230;-80
2023/09/02 10:44:53;;;;;;;4.88;1.17;;;;;;;-145.69;34.49;51707.75;5147902;27;20189;-81
2023/09/02 10:47:20;;;;;;;1.73;1.10;;;;;;;-145.69;35.26;51674.09;5134687;27;20193;-81
2023/09/02 10:49:50;;;;;;;2.03;1.08;;;;;;;-145.69;35.25;51678.03;5134814;27;20209;-81
2023/09/02 10:52:23;;;;;;;1.83;1.10;;;;;;;-145.69;35.41;51672.09;5134767;27;20203;-81
2023/09/02 10:55:08;;;;;;;2.10;1.27;;;;;;;-145.69;34.50;51664.19;5133555;27;20197;-81
2023/09/02 10:57:46;;;;;;;2.47;1.20;;;;;;;-145.69;34.68;51664.19;5134365;27;20200;-81
2023/09/02 11:00:17;;;;;;;2.30;1.20;;;;;;;-145.69;35.24;51711.72;5126676;27;20200;-79
2023/09/02 11:02:45;;;;;;;1.73;1.05;;;;;;;-145.69;34.42;51691.91;5134647;27;20196;-81
2023/09/02 11:05:12;;;;;;;5.30;1.23;;;;;;;-145.69;34.55;51695.88;5134194;27;20193;-81
2023/09/02 11:07:41;;;;;;;2.65;1.17;;;;;;;-145.69;35.85;51658.25;5134462;27;20204;-81
2023/09/02 11:10:11;;;;;;;2.55;1.20;;;;;;;-145.69;34.59;51680.03;5134380;27;20704;-80
2023/09/02 11:13:08;;;;;;;2.25;1.38;;;;;;;-145.69;34.55;51680.03;5133772;27;20211;-81
2023/09/02 11:15:35;;;;;;;3.75;1.23;;;;;;;-145.69;34.82;51691.91;5134386;27;20213;-82
2023/09/02 11:18:27;;;;;;;2.05;1.30;;;;;;;-145.69;34.26;51676.06;5134319;27;20196;-82
2023/09/02 11:20:56;;;;;;;3.83;1.38;;;;;;;-145.69;34.83;51683.97;5134507;27;20253;-82
2023/09/02 11:23:24;;;;;;;2.33;1.17;;;;;;;-145.69;34.42;51656.25;5134177;27;20279;-82